INFORMACIÓN METAR y TAF
METAR FOR LPMA
ADDS - METARS form results

(0016 UTC 18 June 2021)
Data provider http://aviationweather.gov/metar/data/
 
METAR text: LPMA 180000Z VRB04KT 9999 FEW016 19/11 Q1022
Conditions at: LPMA (FUNCHAL/MADEIRA , PT) observed 0000 UTC 18 June 2021
Temperature: 19.0°C (66°F)
Dewpoint: 11.0°C (52°F) [RH = 60%]
Pressure (altimeter): 30.18 inches Hg (1022.0 mb)
Winds: variable direction winds at 5 MPH (4 knots; 2.1 m/s)
Visibility: 6 or more miles (10+ km)
Ceiling: at least 12,000 feet AGL
Clouds: few clouds at 1600 feet AGL
Weather: no significant weather observed at this time

METAR text: LPMA 172330Z 32005KT 250V010 9999 FEW016 19/10 Q1022
Conditions at: LPMA (FUNCHAL/MADEIRA , PT) observed 2330 UTC 17 June 2021
Temperature: 19.0°C (66°F)
Dewpoint: 10.0°C (50°F) [RH = 56%]
Pressure (altimeter): 30.18 inches Hg (1022.0 mb)
Winds: from the NW (320 degrees) at 6 MPH (5 knots; 2.6 m/s)
Visibility: 6 or more miles (10+ km)
Ceiling: at least 12,000 feet AGL
Clouds: few clouds at 1600 feet AGL
Weather: no significant weather observed at this time

Forecast for: LPMA (FUNCHAL/MADEIRA , PT)
Text: TAF LPMA 172300Z 1800/1824 36010KT 9999 SCT015
Forecast period: 0000 UTC 18 June 2021 to 0000 UTC 19 June 2021
Forecast type: FROM: standard forecast or significant change
Winds: from the N (360 degrees) at 12 MPH (10 knots; 5.1 m/s)
Visibility: 6 or more miles (10+ km)
Ceiling: at least 12,000 feet AGL
Clouds: scattered clouds at 1500 feet AGL
Weather: no significant weather forecast for this period
Text: TEMPO 1800/1806 VRB05KT
Forecast period: 0000 to 0600 UTC 18 June 2021
Forecast type: TEMPORARY: The following changes expected for less than half the time period
Winds: variable direction winds at 6 MPH (5 knots; 2.6 m/s)
Visibility: missing
Ceiling: unknown
Clouds: missing
Weather: no significant weather forecast for this period
Text: PROB40
Forecast period: 0600 UTC 18 June 2021 to 0000 UTC 19 June 2021
Forecast type: TEMPORARY: The following changes expected for less than half the time period
Winds: from the N (10 degrees) at 21 MPH (18 knots; 9.3 m/s)
gusting to 34 MPH (30 knots; 15.4 m/s)
Visibility: missing
Ceiling: unknown
Clouds: missing
Weather: no significant weather forecast for this period

 MAPA DE AEROPUERTO

 INFORMACIÓN DE PISTA
Pista 05 Longitud 9110 ft Ancho 148 ft
Elevación 147 ft Umbral desplazado 480 ft Rumbo de pista 45
Pista 23 Longitud 9110 ft Ancho 148 ft
Elevación 192 ft Umbral desplazado 490 ft Rumbo de pista 225

 FRECUANCIAS DEL AEROPUERTO
Tipo APP Nombre APP Frecuencia 119.2 MHZ
Tipo TWR Nombre TWR Frecuencia 118.35 MHZ

 RADIO AYUDAS DEL AEROPUERTO
Tipo VOR-DME Nombre Madeira Frecuencia 112200 KHZ
Tipo NDB Nombre Madeira Frecuencia 318 KHZ



Powered by Virtual Airlines Manager [v2.6.2]